Aeroboteco Virtual Airlines! Uma nuvem a frente.



 INFORMAÇÕES METEOROLÓGICAS
METAR FOR PAGS
ADDS - METARS form results

(0443 UTC 19 June 2019)
Data provider http://aviationweather.gov/metar/data/
 
METAR text: PAGS 190414Z AUTO 00000KT 10SM FEW016 SCT022 OVC050 11/09 A3006 RMK AO2
Conditions at: PAGS (GUSTAVUS , AK, US) observed 0414 UTC 19 June 2019
Temperature: 11.0°C (52°F)
Dewpoint: 9.0°C (48°F) [RH = 87%]
Pressure (altimeter): 30.06 inches Hg (1018.0 mb)
Winds: calm
Visibility: 10 or more miles (16+ km)
Ceiling: 5000 feet AGL
Clouds: few clouds at 1600 feet AGL
scattered clouds at 2200 feet AGL
overcast cloud deck at 5000 feet AGL
Weather: automated observation with no human augmentation;
there may or may not be significant weather present at this time

METAR text: PAGS 190356Z AUTO 19004KT 10SM FEW016 BKN024 OVC050 11/09 A3006 RMK AO2 SLP181 T01110089
Conditions at: PAGS (GUSTAVUS , AK, US) observed 0356 UTC 19 June 2019
Temperature: 11.1°C (52°F)
Dewpoint: 8.9°C (48°F) [RH = 86%]
Pressure (altimeter): 30.06 inches Hg (1018.0 mb)
[Sea-level pressure: 1018.1 mb]
Winds: from the S (190 degrees) at 5 MPH (4 knots; 2.1 m/s)
Visibility: 10 or more miles (16+ km)
Ceiling: 2400 feet AGL
Clouds: few clouds at 1600 feet AGL
broken clouds at 2400 feet AGL
overcast cloud deck at 5000 feet AGL
Weather: automated observation with no human augmentation;
there may or may not be significant weather present at this time

METAR text: PAGS 190345Z AUTO 23003KT 10SM SCT016 BKN026 OVC055 12/09 A3006 RMK AO2
Conditions at: PAGS (GUSTAVUS , AK, US) observed 0345 UTC 19 June 2019
Temperature: 12.0°C (54°F)
Dewpoint: 9.0°C (48°F) [RH = 82%]
Pressure (altimeter): 30.06 inches Hg (1018.0 mb)
Winds: from the SW (230 degrees) at 3 MPH (3 knots; 1.5 m/s)
Visibility: 10 or more miles (16+ km)
Ceiling: 2600 feet AGL
Clouds: scattered clouds at 1600 feet AGL
broken clouds at 2600 feet AGL
overcast cloud deck at 5500 feet AGL
Weather: automated observation with no human augmentation;
there may or may not be significant weather present at this time

Forecast for: PAGS (GUSTAVUS , AK, US)
Text: PAGS 182320Z 1900/1924 VRB04KT P6SM VCSH SCT020 BKN040 BKN060
Forecast period: 0000 to 1100 UTC 19 June 2019
Forecast type: FROM: standard forecast or significant change
Winds: variable direction winds at 5 MPH (4 knots; 2.1 m/s)
Visibility: 6 or more miles 10+ km)
Ceiling: 4000 feet AGL
Clouds: scattered clouds at 2000 feet AGL
broken clouds at 4000 feet AGL
broken clouds at 6000 feet AGL
Weather: VCSH  (showers in vicinity)
Text: TEMPO 1900/1904 6SM -SHRA BKN020 OVC040
Forecast period: 0000 to 0400 UTC 19 June 2019
Forecast type: TEMPORARY: The following changes expected for less than half the time period
Visibility: 6 miles (10 km)
Ceiling: 2000 feet AGL
Clouds: broken clouds at 2000 feet AGL
overcast cloud deck at 4000 feet AGL
Weather: -SHRA  (light rain showers)
Text: FM191100 VRB03KT P6SM VCSH FEW005 OVC025 AMD LTD TO CLD VIS AND WIND
Forecast period: 1100 UTC 19 June 2019 to 0000 UTC 20 June 2019
Forecast type: FROM: standard forecast or significant change
Winds: variable direction winds at 3 MPH (3 knots; 1.5 m/s)
Visibility: 6 or more miles 10+ km)
Ceiling: 2500 feet AGL
Clouds: few clouds at 500 feet AGL
overcast cloud deck at 2500 feet AGL
Weather: VCSH  (showers in vicinity)

 MAPA DO AEROPORTO

 INFORMAÇÕES DA PISTA
Pista 02 Tamanho da pista 3010 ft Largura da pista 60 ft
Elevação da pista 28 ft Ranhura da pista 0 ft Proa da pista 41
Pista 20 Tamanho da pista 3010 ft Largura da pista 60 ft
Elevação da pista 30 ft Ranhura da pista 0 ft Proa da pista 221
Pista 11 Tamanho da pista 6720 ft Largura da pista 150 ft
Elevação da pista 34 ft Ranhura da pista 0 ft Proa da pista 135
Pista 29 Tamanho da pista 6720 ft Largura da pista 150 ft
Elevação da pista 26 ft Ranhura da pista 0 ft Proa da pista 315

 FREQUÊNCIAS DO AEROPORTO
Tipo AWOS Nome AWOS 3 Frequência 125.9 MHZ
Tipo CNTR Nome ANCHORAGE Frequência 133.2 MHZ
Tipo CTAF Nome CTAF Frequência 122.5 MHZ
Tipo RCO Nome JUNEAU RDO Frequência 122.65 MHZ

 AUXÍLIOS DE NAVEGAÇÃO PRÓXIMOS AO AEROPORTO
Tipo NDB Nome Gustavus Frequência 219 KHZ